sensor_id;sensor_type;location;lat;lon;timestamp;temperature;humidity
51383;DHT22;37475;43.358;1.248;2023-09-19T00:02:17;18.30;80.60
51383;DHT22;37475;43.358;1.248;2023-09-19T00:04:43;18.20;80.80
51383;DHT22;37475;43.358;1.248;2023-09-19T00:07:10;18.10;80.90
51383;DHT22;37475;43.358;1.248;2023-09-19T00:09:35;18.10;81.40
51383;DHT22;37475;43.358;1.248;2023-09-19T00:12:06;18.10;81.40
51383;DHT22;37475;43.358;1.248;2023-09-19T00:14:32;18.00;81.60
51383;DHT22;37475;43.358;1.248;2023-09-19T00:17:04;18.00;81.40
51383;DHT22;37475;43.358;1.248;2023-09-19T00:19:35;18.00;81.50
51383;DHT22;37475;43.358;1.248;2023-09-19T00:22:01;18.00;81.80
51383;DHT22;37475;43.358;1.248;2023-09-19T00:24:28;17.90;81.90
51383;DHT22;37475;43.358;1.248;2023-09-19T00:26:54;18.00;81.70
51383;DHT22;37475;43.358;1.248;2023-09-19T00:29:21;17.90;81.90
51383;DHT22;37475;43.358;1.248;2023-09-19T00:31:48;17.90;81.90
51383;DHT22;37475;43.358;1.248;2023-09-19T00:34:15;17.90;81.80
51383;DHT22;37475;43.358;1.248;2023-09-19T00:36:42;17.90;81.80
51383;DHT22;37475;43.358;1.248;2023-09-19T00:39:08;17.80;81.90
51383;DHT22;37475;43.358;1.248;2023-09-19T00:41:35;17.80;82.00
51383;DHT22;37475;43.358;1.248;2023-09-19T00:44:02;17.80;81.90
51383;DHT22;37475;43.358;1.248;2023-09-19T00:46:30;17.80;82.00
51383;DHT22;37475;43.358;1.248;2023-09-19T00:48:58;17.70;82.20
51383;DHT22;37475;43.358;1.248;2023-09-19T00:51:25;17.70;82.40
51383;DHT22;37475;43.358;1.248;2023-09-19T00:53:53;17.60;82.40
51383;DHT22;37475;43.358;1.248;2023-09-19T00:56:19;17.60;82.30
51383;DHT22;37475;43.358;1.248;2023-09-19T00:58:46;17.60;82.20
51383;DHT22;37475;43.358;1.248;2023-09-19T01:01:16;17.60;82.10
51383;DHT22;37475;43.358;1.248;2023-09-19T01:03:42;17.60;81.90
51383;DHT22;37475;43.358;1.248;2023-09-19T01:06:09;17.60;81.70
51383;DHT22;37475;43.358;1.248;2023-09-19T01:08:36;17.60;81.60
51383;DHT22;37475;43.358;1.248;2023-09-19T01:13:58;17.50;82.10
51383;DHT22;37475;43.358;1.248;2023-09-19T01:16:41;17.30;82.90
51383;DHT22;37475;43.358;1.248;2023-09-19T01:22:37;17.20;83.90
51383;DHT22;37475;43.358;1.248;2023-09-19T01:30:41;17.30;83.60
51383;DHT22;37475;43.358;1.248;2023-09-19T01:33:09;17.30;83.10
51383;DHT22;37475;43.358;1.248;2023-09-19T01:35:38;17.10;82.80
51383;DHT22;37475;43.358;1.248;2023-09-19T01:38:08;16.60;84.40
51383;DHT22;37475;43.358;1.248;2023-09-19T01:40:50;16.60;84.80
51383;DHT22;37475;43.358;1.248;2023-09-19T01:43:33;16.60;85.00
51383;DHT22;37475;43.358;1.248;2023-09-19T01:46:13;16.40;85.40
51383;DHT22;37475;43.358;1.248;2023-09-19T01:48:43;16.50;85.20
51383;DHT22;37475;43.358;1.248;2023-09-19T01:51:22;16.60;84.80
51383;DHT22;37475;43.358;1.248;2023-09-19T01:54:18;16.60;85.00
51383;DHT22;37475;43.358;1.248;2023-09-19T01:56:59;16.50;85.60
51383;DHT22;37475;43.358;1.248;2023-09-19T01:59:43;16.40;85.70
51383;DHT22;37475;43.358;1.248;2023-09-19T02:02:22;16.50;85.40
51383;DHT22;37475;43.358;1.248;2023-09-19T02:04:49;16.40;85.30
51383;DHT22;37475;43.358;1.248;2023-09-19T02:07:16;16.20;85.50
51383;DHT22;37475;43.358;1.248;2023-09-19T02:09:42;16.10;85.90
51383;DHT22;37475;43.358;1.248;2023-09-19T02:12:09;16.10;85.70
51383;DHT22;37475;43.358;1.248;2023-09-19T02:14:35;16.20;85.50
51383;DHT22;37475;43.358;1.248;2023-09-19T02:17:04;16.30;85.10
51383;DHT22;37475;43.358;1.248;2023-09-19T02:19:33;16.30;84.80
51383;DHT22;37475;43.358;1.248;2023-09-19T02:22:00;16.30;84.70
51383;DHT22;37475;43.358;1.248;2023-09-19T02:24:29;16.30;85.00
51383;DHT22;37475;43.358;1.248;2023-09-19T02:26:54;16.30;85.20
51383;DHT22;37475;43.358;1.248;2023-09-19T02:29:21;16.10;85.70
51383;DHT22;37475;43.358;1.248;2023-09-19T02:31:48;16.00;86.70
51383;DHT22;37475;43.358;1.248;2023-09-19T02:34:13;16.00;87.30
51383;DHT22;37475;43.358;1.248;2023-09-19T02:36:42;16.00;87.40
51383;DHT22;37475;43.358;1.248;2023-09-19T02:39:09;16.00;87.20
51383;DHT22;37475;43.358;1.248;2023-09-19T02:41:36;16.10;86.60
51383;DHT22;37475;43.358;1.248;2023-09-19T02:44:02;16.10;86.20
51383;DHT22;37475;43.358;1.248;2023-09-19T02:46:32;16.20;85.80
51383;DHT22;37475;43.358;1.248;2023-09-19T02:48:58;16.20;85.60
51383;DHT22;37475;43.358;1.248;2023-09-19T02:51:24;16.20;85.50
51383;DHT22;37475;43.358;1.248;2023-09-19T02:53:50;16.20;85.30
51383;DHT22;37475;43.358;1.248;2023-09-19T02:56:20;16.20;85.40
51383;DHT22;37475;43.358;1.248;2023-09-19T02:58:46;16.20;85.80
51383;DHT22;37475;43.358;1.248;2023-09-19T03:01:12;16.10;86.20
51383;DHT22;37475;43.358;1.248;2023-09-19T03:03:38;16.10;86.20
51383;DHT22;37475;43.358;1.248;2023-09-19T03:06:08;16.10;85.90
51383;DHT22;37475;43.358;1.248;2023-09-19T03:08:35;16.00;85.70
51383;DHT22;37475;43.358;1.248;2023-09-19T03:11:05;16.10;85.50
51383;DHT22;37475;43.358;1.248;2023-09-19T03:13:34;16.00;85.50
51383;DHT22;37475;43.358;1.248;2023-09-19T03:16:06;16.00;85.90
51383;DHT22;37475;43.358;1.248;2023-09-19T03:18:35;16.00;86.30
51383;DHT22;37475;43.358;1.248;2023-09-19T03:21:01;15.80;87.00
51383;DHT22;37475;43.358;1.248;2023-09-19T03:23:27;15.80;87.00
51383;DHT22;37475;43.358;1.248;2023-09-19T03:25:55;15.80;86.90
51383;DHT22;37475;43.358;1.248;2023-09-19T03:28:22;15.80;87.40
51383;DHT22;37475;43.358;1.248;2023-09-19T03:31:07;15.80;87.40
51383;DHT22;37475;43.358;1.248;2023-09-19T03:33:33;15.90;87.00
51383;DHT22;37475;43.358;1.248;2023-09-19T03:36:00;15.80;87.10
51383;DHT22;37475;43.358;1.248;2023-09-19T03:38:30;15.80;87.30
51383;DHT22;37475;43.358;1.248;2023-09-19T03:40:57;15.90;87.10
51383;DHT22;37475;43.358;1.248;2023-09-19T03:43:23;15.90;86.70
51383;DHT22;37475;43.358;1.248;2023-09-19T03:45:48;15.90;86.30
51383;DHT22;37475;43.358;1.248;2023-09-19T03:48:16;15.90;86.30
51383;DHT22;37475;43.358;1.248;2023-09-19T03:50:42;15.90;86.30
51383;DHT22;37475;43.358;1.248;2023-09-19T03:53:09;15.80;86.30
51383;DHT22;37475;43.358;1.248;2023-09-19T03:55:35;15.70;86.50
51383;DHT22;37475;43.358;1.248;2023-09-19T03:58:03;15.60;87.20
51383;DHT22;37475;43.358;1.248;2023-09-19T04:00:29;15.60;87.30
51383;DHT22;37475;43.358;1.248;2023-09-19T04:02:55;15.60;87.20
51383;DHT22;37475;43.358;1.248;2023-09-19T04:05:22;15.60;87.00
51383;DHT22;37475;43.358;1.248;2023-09-19T04:07:49;15.60;87.30
51383;DHT22;37475;43.358;1.248;2023-09-19T04:10:15;15.60;86.90
51383;DHT22;37475;43.358;1.248;2023-09-19T04:12:53;15.30;87.20
51383;DHT22;37475;43.358;1.248;2023-09-19T04:15:20;15.10;87.60
51383;DHT22;37475;43.358;1.248;2023-09-19T04:17:48;15.10;88.20
51383;DHT22;37475;43.358;1.248;2023-09-19T04:20:15;15.20;87.90
51383;DHT22;37475;43.358;1.248;2023-09-19T04:22:41;15.20;87.60
51383;DHT22;37475;43.358;1.248;2023-09-19T04:25:07;15.20;88.10
51383;DHT22;37475;43.358;1.248;2023-09-19T04:27:33;15.30;88.50
51383;DHT22;37475;43.358;1.248;2023-09-19T04:30:00;15.30;88.90
51383;DHT22;37475;43.358;1.248;2023-09-19T04:32:29;15.30;89.50
51383;DHT22;37475;43.358;1.248;2023-09-19T04:34:57;15.20;89.90
51383;DHT22;37475;43.358;1.248;2023-09-19T04:37:25;15.20;90.10
51383;DHT22;37475;43.358;1.248;2023-09-19T04:39:51;15.20;90.30
51383;DHT22;37475;43.358;1.248;2023-09-19T04:42:17;15.20;90.40
51383;DHT22;37475;43.358;1.248;2023-09-19T04:44:43;15.10;90.60
51383;DHT22;37475;43.358;1.248;2023-09-19T04:47:09;15.10;90.60
51383;DHT22;37475;43.358;1.248;2023-09-19T04:49:37;15.10;90.70
51383;DHT22;37475;43.358;1.248;2023-09-19T04:52:03;15.10;90.60
51383;DHT22;37475;43.358;1.248;2023-09-19T04:54:29;15.10;90.60
51383;DHT22;37475;43.358;1.248;2023-09-19T04:56:55;15.10;90.60
51383;DHT22;37475;43.358;1.248;2023-09-19T04:59:21;15.10;90.70
51383;DHT22;37475;43.358;1.248;2023-09-19T05:01:46;15.10;90.80
51383;DHT22;37475;43.358;1.248;2023-09-19T05:04:12;15.10;90.80
51383;DHT22;37475;43.358;1.248;2023-09-19T05:06:38;15.10;90.80
51383;DHT22;37475;43.358;1.248;2023-09-19T05:09:04;15.10;90.70
51383;DHT22;37475;43.358;1.248;2023-09-19T05:11:31;15.10;90.70
51383;DHT22;37475;43.358;1.248;2023-09-19T05:13:56;15.10;90.70
51383;DHT22;37475;43.358;1.248;2023-09-19T05:16:22;15.10;90.70
51383;DHT22;37475;43.358;1.248;2023-09-19T05:18:48;15.10;90.70
51383;DHT22;37475;43.358;1.248;2023-09-19T05:21:15;15.10;90.70
51383;DHT22;37475;43.358;1.248;2023-09-19T05:23:40;15.10;90.90
51383;DHT22;37475;43.358;1.248;2023-09-19T05:26:07;15.10;91.10
51383;DHT22;37475;43.358;1.248;2023-09-19T05:28:33;15.10;91.10
51383;DHT22;37475;43.358;1.248;2023-09-19T05:31:01;15.10;91.20
51383;DHT22;37475;43.358;1.248;2023-09-19T05:33:29;15.10;91.20
51383;DHT22;37475;43.358;1.248;2023-09-19T05:35:57;15.10;91.10
51383;DHT22;37475;43.358;1.248;2023-09-19T05:38:23;15.10;91.10
51383;DHT22;37475;43.358;1.248;2023-09-19T05:40:49;15.00;91.10
51383;DHT22;37475;43.358;1.248;2023-09-19T05:43:15;15.00;91.20
51383;DHT22;37475;43.358;1.248;2023-09-19T05:45:41;15.00;91.20
51383;DHT22;37475;43.358;1.248;2023-09-19T05:48:16;15.10;90.90
51383;DHT22;37475;43.358;1.248;2023-09-19T05:50:42;15.00;90.70
51383;DHT22;37475;43.358;1.248;2023-09-19T05:53:09;15.10;90.70
51383;DHT22;37475;43.358;1.248;2023-09-19T05:55:38;15.10;90.60
51383;DHT22;37475;43.358;1.248;2023-09-19T05:58:04;15.10;90.70
51383;DHT22;37475;43.358;1.248;2023-09-19T06:00:30;15.10;90.70
51383;DHT22;37475;43.358;1.248;2023-09-19T06:02:59;15.00;90.80
51383;DHT22;37475;43.358;1.248;2023-09-19T06:05:26;15.00;91.10
51383;DHT22;37475;43.358;1.248;2023-09-19T06:07:53;14.90;91.30
51383;DHT22;37475;43.358;1.248;2023-09-19T06:10:20;14.70;91.60
51383;DHT22;37475;43.358;1.248;2023-09-19T06:12:46;14.70;91.90
51383;DHT22;37475;43.358;1.248;2023-09-19T06:15:14;14.60;92.10
51383;DHT22;37475;43.358;1.248;2023-09-19T06:18:01;14.60;92.30
51383;DHT22;37475;43.358;1.248;2023-09-19T06:20:30;14.70;92.30
51383;DHT22;37475;43.358;1.248;2023-09-19T06:22:56;14.80;92.20
51383;DHT22;37475;43.358;1.248;2023-09-19T06:25:22;14.90;92.10
51383;DHT22;37475;43.358;1.248;2023-09-19T06:27:49;15.00;92.10
51383;DHT22;37475;43.358;1.248;2023-09-19T06:30:17;15.10;91.80
51383;DHT22;37475;43.358;1.248;2023-09-19T06:32:44;15.10;91.60
51383;DHT22;37475;43.358;1.248;2023-09-19T06:35:14;15.10;91.50
51383;DHT22;37475;43.358;1.248;2023-09-19T06:37:42;15.20;91.30
51383;DHT22;37475;43.358;1.248;2023-09-19T06:40:12;15.30;91.20
51383;DHT22;37475;43.358;1.248;2023-09-19T06:42:43;15.30;91.00
51383;DHT22;37475;43.358;1.248;2023-09-19T06:45:11;15.40;90.90
51383;DHT22;37475;43.358;1.248;2023-09-19T06:47:46;15.50;90.60
51383;DHT22;37475;43.358;1.248;2023-09-19T06:50:20;15.60;90.30
51383;DHT22;37475;43.358;1.248;2023-09-19T06:52:49;15.60;89.90
51383;DHT22;37475;43.358;1.248;2023-09-19T06:55:18;15.80;89.60
51383;DHT22;37475;43.358;1.248;2023-09-19T06:57:46;15.80;89.20
51383;DHT22;37475;43.358;1.248;2023-09-19T07:00:13;15.80;89.10
51383;DHT22;37475;43.358;1.248;2023-09-19T07:03:05;16.00;88.80
51383;DHT22;37475;43.358;1.248;2023-09-19T07:05:34;16.00;88.40
51383;DHT22;37475;43.358;1.248;2023-09-19T07:08:05;16.10;88.40
51383;DHT22;37475;43.358;1.248;2023-09-19T07:10:32;16.20;88.40
51383;DHT22;37475;43.358;1.248;2023-09-19T07:13:03;16.30;87.60
51383;DHT22;37475;43.358;1.248;2023-09-19T07:15:31;16.40;87.60
51383;DHT22;37475;43.358;1.248;2023-09-19T07:18:01;16.50;87.50
51383;DHT22;37475;43.358;1.248;2023-09-19T07:20:27;16.60;87.10
51383;DHT22;37475;43.358;1.248;2023-09-19T07:22:55;16.70;87.10
51383;DHT22;37475;43.358;1.248;2023-09-19T07:25:21;16.80;86.10
51383;DHT22;37475;43.358;1.248;2023-09-19T07:27:47;16.90;85.90
51383;DHT22;37475;43.358;1.248;2023-09-19T07:30:13;17.00;84.90
51383;DHT22;37475;43.358;1.248;2023-09-19T07:32:40;17.10;84.30
51383;DHT22;37475;43.358;1.248;2023-09-19T07:35:06;17.20;84.10
51383;DHT22;37475;43.358;1.248;2023-09-19T07:37:32;17.50;84.20
51383;DHT22;37475;43.358;1.248;2023-09-19T07:40:02;17.60;83.30
51383;DHT22;37475;43.358;1.248;2023-09-19T07:42:37;17.60;82.40
51383;DHT22;37475;43.358;1.248;2023-09-19T07:45:05;17.60;82.40
51383;DHT22;37475;43.358;1.248;2023-09-19T07:47:31;17.70;82.10
51383;DHT22;37475;43.358;1.248;2023-09-19T07:49:58;17.90;81.90
51383;DHT22;37475;43.358;1.248;2023-09-19T07:52:26;18.00;81.60
51383;DHT22;37475;43.358;1.248;2023-09-19T07:54:53;18.10;80.10
51383;DHT22;37475;43.358;1.248;2023-09-19T07:57:19;18.20;80.00
51383;DHT22;37475;43.358;1.248;2023-09-19T07:59:45;18.50;79.70
51383;DHT22;37475;43.358;1.248;2023-09-19T08:02:11;18.60;79.70
51383;DHT22;37475;43.358;1.248;2023-09-19T08:04:45;18.70;79.30
51383;DHT22;37475;43.358;1.248;2023-09-19T08:07:11;18.80;79.10
51383;DHT22;37475;43.358;1.248;2023-09-19T08:09:38;18.80;78.80
51383;DHT22;37475;43.358;1.248;2023-09-19T08:12:06;18.90;78.60
51383;DHT22;37475;43.358;1.248;2023-09-19T08:14:37;19.10;78.20
51383;DHT22;37475;43.358;1.248;2023-09-19T08:17:03;19.10;77.80
51383;DHT22;37475;43.358;1.248;2023-09-19T08:19:33;19.20;78.10
51383;DHT22;37475;43.358;1.248;2023-09-19T08:21:59;19.40;78.20
51383;DHT22;37475;43.358;1.248;2023-09-19T08:24:30;19.50;78.20
51383;DHT22;37475;43.358;1.248;2023-09-19T08:26:57;19.60;77.80
51383;DHT22;37475;43.358;1.248;2023-09-19T08:29:24;19.60;78.00
51383;DHT22;37475;43.358;1.248;2023-09-19T08:31:54;19.50;77.80
51383;DHT22;37475;43.358;1.248;2023-09-19T08:34:21;19.80;78.50
51383;DHT22;37475;43.358;1.248;2023-09-19T08:36:52;19.80;77.60
51383;DHT22;37475;43.358;1.248;2023-09-19T08:39:24;19.90;77.50
51383;DHT22;37475;43.358;1.248;2023-09-19T08:41:58;20.10;77.20
51383;DHT22;37475;43.358;1.248;2023-09-19T08:44:28;20.10;76.80
51383;DHT22;37475;43.358;1.248;2023-09-19T08:47:10;20.20;76.70
51383;DHT22;37475;43.358;1.248;2023-09-19T08:50:01;20.20;76.90
51383;DHT22;37475;43.358;1.248;2023-09-19T08:52:41;20.50;76.50
51383;DHT22;37475;43.358;1.248;2023-09-19T08:55:13;20.60;75.90
51383;DHT22;37475;43.358;1.248;2023-09-19T08:57:46;20.70;76.20
51383;DHT22;37475;43.358;1.248;2023-09-19T09:00:16;20.90;75.20
51383;DHT22;37475;43.358;1.248;2023-09-19T09:02:44;20.70;75.50
51383;DHT22;37475;43.358;1.248;2023-09-19T09:05:11;20.60;75.30
51383;DHT22;37475;43.358;1.248;2023-09-19T09:07:43;20.60;75.20
51383;DHT22;37475;43.358;1.248;2023-09-19T09:10:09;20.50;75.70
51383;DHT22;37475;43.358;1.248;2023-09-19T09:12:36;20.60;75.40
51383;DHT22;37475;43.358;1.248;2023-09-19T09:15:04;20.60;75.10
51383;DHT22;37475;43.358;1.248;2023-09-19T09:17:30;20.80;74.60
51383;DHT22;37475;43.358;1.248;2023-09-19T09:19:57;21.10;74.40
51383;DHT22;37475;43.358;1.248;2023-09-19T09:22:22;21.40;73.20
51383;DHT22;37475;43.358;1.248;2023-09-19T09:24:55;21.80;72.50
51383;DHT22;37475;43.358;1.248;2023-09-19T09:27:30;22.10;71.90
51383;DHT22;37475;43.358;1.248;2023-09-19T09:29:58;22.10;69.90
51383;DHT22;37475;43.358;1.248;2023-09-19T09:32:24;21.90;70.80
51383;DHT22;37475;43.358;1.248;2023-09-19T09:34:54;21.30;72.20
51383;DHT22;37475;43.358;1.248;2023-09-19T09:37:22;21.10;73.20
51383;DHT22;37475;43.358;1.248;2023-09-19T09:39:54;20.90;74.20
51383;DHT22;37475;43.358;1.248;2023-09-19T09:42:30;21.00;74.10
51383;DHT22;37475;43.358;1.248;2023-09-19T09:45:19;21.10;73.90
51383;DHT22;37475;43.358;1.248;2023-09-19T09:48:01;21.60;73.40
51383;DHT22;37475;43.358;1.248;2023-09-19T09:50:46;22.10;70.90
51383;DHT22;37475;43.358;1.248;2023-09-19T09:53:28;22.40;69.40
51383;DHT22;37475;43.358;1.248;2023-09-19T09:55:58;22.40;67.70
51383;DHT22;37475;43.358;1.248;2023-09-19T09:58:40;22.30;68.40
51383;DHT22;37475;43.358;1.248;2023-09-19T10:01:15;22.20;68.20
51383;DHT22;37475;43.358;1.248;2023-09-19T10:03:42;22.20;68.60
51383;DHT22;37475;43.358;1.248;2023-09-19T10:06:18;22.30;68.50
51383;DHT22;37475;43.358;1.248;2023-09-19T10:09:09;22.10;69.20
51383;DHT22;37475;43.358;1.248;2023-09-19T10:12:05;22.60;69.00
51383;DHT22;37475;43.358;1.248;2023-09-19T10:14:37;23.00;67.60
51383;DHT22;37475;43.358;1.248;2023-09-19T10:17:05;23.20;66.30
51383;DHT22;37475;43.358;1.248;2023-09-19T10:19:42;22.90;66.50
51383;DHT22;37475;43.358;1.248;2023-09-19T10:22:24;22.60;67.40
51383;DHT22;37475;43.358;1.248;2023-09-19T10:24:53;22.50;66.40
51383;DHT22;37475;43.358;1.248;2023-09-19T10:27:26;22.70;66.60
51383;DHT22;37475;43.358;1.248;2023-09-19T10:29:52;23.00;66.20
51383;DHT22;37475;43.358;1.248;2023-09-19T10:32:23;23.30;67.00
51383;DHT22;37475;43.358;1.248;2023-09-19T10:34:49;23.60;64.10
51383;DHT22;37475;43.358;1.248;2023-09-19T10:37:20;24.10;63.80
51383;DHT22;37475;43.358;1.248;2023-09-19T10:39:52;24.10;62.00
51383;DHT22;37475;43.358;1.248;2023-09-19T10:42:19;23.90;61.10
51383;DHT22;37475;43.358;1.248;2023-09-19T10:44:47;23.10;63.90
51383;DHT22;37475;43.358;1.248;2023-09-19T10:47:19;23.00;64.50
51383;DHT22;37475;43.358;1.248;2023-09-19T10:49:47;23.30;64.00
51383;DHT22;37475;43.358;1.248;2023-09-19T10:52:15;23.80;62.50
51383;DHT22;37475;43.358;1.248;2023-09-19T10:54:49;23.70;61.50
51383;DHT22;37475;43.358;1.248;2023-09-19T10:57:21;24.00;59.70
51383;DHT22;37475;43.358;1.248;2023-09-19T11:00:08;24.20;60.10
51383;DHT22;37475;43.358;1.248;2023-09-19T11:06:09;24.90;58.90
51383;DHT22;37475;43.358;1.248;2023-09-19T11:09:04;24.10;60.20
51383;DHT22;37475;43.358;1.248;2023-09-19T11:11:51;24.20;60.50
51383;DHT22;37475;43.358;1.248;2023-09-19T11:30:48;25.20;56.30
51383;DHT22;37475;43.358;1.248;2023-09-19T11:33:28;25.20;56.60
51383;DHT22;37475;43.358;1.248;2023-09-19T11:36:11;25.10;57.60
51383;DHT22;37475;43.358;1.248;2023-09-19T11:46:30;25.80;54.70
51383;DHT22;37475;43.358;1.248;2023-09-19T11:49:06;25.90;53.70
51383;DHT22;37475;43.358;1.248;2023-09-19T11:51:43;25.70;54.80
51383;DHT22;37475;43.358;1.248;2023-09-19T11:54:11;26.30;54.30
51383;DHT22;37475;43.358;1.248;2023-09-19T11:56:48;26.20;52.90
51383;DHT22;37475;43.358;1.248;2023-09-19T11:59:20;25.40;54.00
51383;DHT22;37475;43.358;1.248;2023-09-19T12:01:54;25.80;53.60
51383;DHT22;37475;43.358;1.248;2023-09-19T12:04:38;25.40;54.50
51383;DHT22;37475;43.358;1.248;2023-09-19T12:07:08;25.60;54.50
51383;DHT22;37475;43.358;1.248;2023-09-19T12:09:45;26.00;53.40
51383;DHT22;37475;43.358;1.248;2023-09-19T12:12:28;26.60;53.50
51383;DHT22;37475;43.358;1.248;2023-09-19T12:14:54;27.10;51.80
51383;DHT22;37475;43.358;1.248;2023-09-19T12:17:22;27.30;51.90
51383;DHT22;37475;43.358;1.248;2023-09-19T12:19:56;27.60;51.10
51383;DHT22;37475;43.358;1.248;2023-09-19T12:22:22;26.60;51.50
51383;DHT22;37475;43.358;1.248;2023-09-19T12:24:48;26.70;51.60
51383;DHT22;37475;43.358;1.248;2023-09-19T12:27:16;26.50;51.80
51383;DHT22;37475;43.358;1.248;2023-09-19T12:29:46;26.60;50.20
51383;DHT22;37475;43.358;1.248;2023-09-19T12:32:36;26.80;50.20
51383;DHT22;37475;43.358;1.248;2023-09-19T12:35:06;27.30;49.10
51383;DHT22;37475;43.358;1.248;2023-09-19T12:37:43;27.50;48.50
51383;DHT22;37475;43.358;1.248;2023-09-19T12:40:21;27.00;50.70
51383;DHT22;37475;43.358;1.248;2023-09-19T12:42:52;27.40;49.00
51383;DHT22;37475;43.358;1.248;2023-09-19T12:45:20;27.60;47.80
51383;DHT22;37475;43.358;1.248;2023-09-19T12:48:22;27.70;48.20
51383;DHT22;37475;43.358;1.248;2023-09-19T12:53:45;28.50;46.90
51383;DHT22;37475;43.358;1.248;2023-09-19T12:56:17;28.80;45.60
51383;DHT22;37475;43.358;1.248;2023-09-19T12:58:50;28.50;46.60
51383;DHT22;37475;43.358;1.248;2023-09-19T13:01:19;27.40;48.00
51383;DHT22;37475;43.358;1.248;2023-09-19T13:03:45;27.50;48.30
51383;DHT22;37475;43.358;1.248;2023-09-19T13:06:11;27.00;50.10
51383;DHT22;37475;43.358;1.248;2023-09-19T13:08:39;27.50;49.30
51383;DHT22;37475;43.358;1.248;2023-09-19T13:11:19;28.70;45.00
51383;DHT22;37475;43.358;1.248;2023-09-19T13:14:13;28.20;46.30
51383;DHT22;37475;43.358;1.248;2023-09-19T13:17:03;27.60;48.00
51383;DHT22;37475;43.358;1.248;2023-09-19T13:19:45;28.30;47.60
51383;DHT22;37475;43.358;1.248;2023-09-19T13:22:40;29.20;44.90
51383;DHT22;37475;43.358;1.248;2023-09-19T13:25:18;30.00;43.30
51383;DHT22;37475;43.358;1.248;2023-09-19T13:30:17;30.10;42.30
51383;DHT22;37475;43.358;1.248;2023-09-19T13:32:44;29.70;43.30
51383;DHT22;37475;43.358;1.248;2023-09-19T13:35:13;29.80;43.00
51383;DHT22;37475;43.358;1.248;2023-09-19T13:37:40;30.30;42.80
51383;DHT22;37475;43.358;1.248;2023-09-19T13:40:09;30.90;43.20
51383;DHT22;37475;43.358;1.248;2023-09-19T13:42:36;31.10;42.70
51383;DHT22;37475;43.358;1.248;2023-09-19T13:45:05;31.90;40.80
51383;DHT22;37475;43.358;1.248;2023-09-19T13:47:32;32.20;39.00
51383;DHT22;37475;43.358;1.248;2023-09-19T13:49:59;32.00;38.60
51383;DHT22;37475;43.358;1.248;2023-09-19T13:52:26;30.70;39.80
51383;DHT22;37475;43.358;1.248;2023-09-19T13:54:54;29.00;43.50
51383;DHT22;37475;43.358;1.248;2023-09-19T13:57:23;27.80;45.70
51383;DHT22;37475;43.358;1.248;2023-09-19T13:59:50;27.50;46.80
51383;DHT22;37475;43.358;1.248;2023-09-19T14:02:17;28.10;46.70
51383;DHT22;37475;43.358;1.248;2023-09-19T14:04:44;28.40;45.20
51383;DHT22;37475;43.358;1.248;2023-09-19T14:07:10;29.00;44.20
51383;DHT22;37475;43.358;1.248;2023-09-19T14:09:36;30.00;42.20
51383;DHT22;37475;43.358;1.248;2023-09-19T14:12:03;29.50;43.60
51383;DHT22;37475;43.358;1.248;2023-09-19T14:14:29;28.90;44.00
51383;DHT22;37475;43.358;1.248;2023-09-19T14:16:55;28.50;43.50
51383;DHT22;37475;43.358;1.248;2023-09-19T14:19:21;28.00;45.10
51383;DHT22;37475;43.358;1.248;2023-09-19T14:21:47;27.70;45.60
51383;DHT22;37475;43.358;1.248;2023-09-19T14:24:19;28.60;43.00
51383;DHT22;37475;43.358;1.248;2023-09-19T14:26:45;29.80;41.40
51383;DHT22;37475;43.358;1.248;2023-09-19T14:29:11;30.80;40.10
51383;DHT22;37475;43.358;1.248;2023-09-19T14:31:40;30.90;39.30
51383;DHT22;37475;43.358;1.248;2023-09-19T14:34:06;31.00;39.50
51383;DHT22;37475;43.358;1.248;2023-09-19T14:36:35;31.10;38.90
51383;DHT22;37475;43.358;1.248;2023-09-19T14:39:02;31.50;38.60
51383;DHT22;37475;43.358;1.248;2023-09-19T14:41:28;31.50;38.90
51383;DHT22;37475;43.358;1.248;2023-09-19T14:43:54;32.50;37.00
51383;DHT22;37475;43.358;1.248;2023-09-19T14:46:21;32.90;35.70
51383;DHT22;37475;43.358;1.248;2023-09-19T14:48:47;33.40;35.50
51383;DHT22;37475;43.358;1.248;2023-09-19T14:51:13;31.80;37.40
51383;DHT22;37475;43.358;1.248;2023-09-19T14:53:40;30.40;40.40
51383;DHT22;37475;43.358;1.248;2023-09-19T14:56:10;31.00;39.70
51383;DHT22;37475;43.358;1.248;2023-09-19T14:58:37;31.20;38.90
51383;DHT22;37475;43.358;1.248;2023-09-19T15:01:11;31.30;38.40
51383;DHT22;37475;43.358;1.248;2023-09-19T15:03:42;31.20;38.70
51383;DHT22;37475;43.358;1.248;2023-09-19T15:06:12;32.00;37.10
51383;DHT22;37475;43.358;1.248;2023-09-19T15:08:40;32.40;36.90
51383;DHT22;37475;43.358;1.248;2023-09-19T15:11:11;32.70;36.40
51383;DHT22;37475;43.358;1.248;2023-09-19T15:13:38;32.50;36.60
51383;DHT22;37475;43.358;1.248;2023-09-19T15:16:06;32.50;36.70
51383;DHT22;37475;43.358;1.248;2023-09-19T15:18:36;33.10;36.10
51383;DHT22;37475;43.358;1.248;2023-09-19T15:21:08;32.60;36.20
51383;DHT22;37475;43.358;1.248;2023-09-19T15:23:36;32.50;36.30
51383;DHT22;37475;43.358;1.248;2023-09-19T15:26:08;32.90;35.60
51383;DHT22;37475;43.358;1.248;2023-09-19T15:28:35;33.10;35.20
51383;DHT22;37475;43.358;1.248;2023-09-19T15:31:05;33.50;35.10
51383;DHT22;37475;43.358;1.248;2023-09-19T15:33:35;32.20;35.90
51383;DHT22;37475;43.358;1.248;2023-09-19T15:38:29;31.90;37.50
51383;DHT22;37475;43.358;1.248;2023-09-19T15:40:55;32.50;37.10
51383;DHT22;37475;43.358;1.248;2023-09-19T15:43:21;31.70;37.90
51383;DHT22;37475;43.358;1.248;2023-09-19T15:45:49;32.00;38.10
51383;DHT22;37475;43.358;1.248;2023-09-19T15:48:15;32.20;37.90
51383;DHT22;37475;43.358;1.248;2023-09-19T15:50:42;32.10;37.40
51383;DHT22;37475;43.358;1.248;2023-09-19T15:53:10;32.30;37.00
51383;DHT22;37475;43.358;1.248;2023-09-19T15:55:41;33.60;34.70
51383;DHT22;37475;43.358;1.248;2023-09-19T15:58:07;34.50;33.00
51383;DHT22;37475;43.358;1.248;2023-09-19T16:00:33;35.10;32.10
51383;DHT22;37475;43.358;1.248;2023-09-19T16:03:02;34.90;32.90
51383;DHT22;37475;43.358;1.248;2023-09-19T16:05:35;33.90;33.10
51383;DHT22;37475;43.358;1.248;2023-09-19T16:08:06;32.10;37.30
51383;DHT22;37475;43.358;1.248;2023-09-19T16:10:36;33.10;36.20
51383;DHT22;37475;43.358;1.248;2023-09-19T16:13:03;32.90;35.10
51383;DHT22;37475;43.358;1.248;2023-09-19T16:15:29;32.80;35.60
51383;DHT22;37475;43.358;1.248;2023-09-19T16:17:55;33.20;35.10
51383;DHT22;37475;43.358;1.248;2023-09-19T16:20:21;33.00;34.30
51383;DHT22;37475;43.358;1.248;2023-09-19T16:22:48;33.10;34.10
51383;DHT22;37475;43.358;1.248;2023-09-19T16:25:14;33.80;33.50
51383;DHT22;37475;43.358;1.248;2023-09-19T16:27:40;34.30;33.20
51383;DHT22;37475;43.358;1.248;2023-09-19T16:30:07;34.60;32.10
51383;DHT22;37475;43.358;1.248;2023-09-19T16:32:35;35.10;31.90
51383;DHT22;37475;43.358;1.248;2023-09-19T16:35:02;34.50;32.80